createdAt,value
2023-08-22T00:00:36.821Z,3.35
2023-08-22T00:03:05.248Z,3.83
2023-08-22T00:05:35.663Z,3.15
2023-08-22T00:08:06.541Z,3.90
2023-08-22T00:10:37.852Z,3.72
2023-08-22T00:13:06.062Z,4.20
2023-08-22T00:15:34.164Z,4.15
2023-08-22T00:18:02.597Z,3.58
2023-08-22T00:20:30.603Z,3.47
2023-08-22T00:22:58.523Z,3.70
2023-08-22T00:25:26.602Z,3.95
2023-08-22T00:27:56.000Z,3.90
2023-08-22T00:30:24.064Z,4.45
2023-08-22T00:32:52.002Z,4.10
2023-08-22T00:35:20.037Z,5.10
2023-08-22T00:37:47.920Z,3.88
2023-08-22T00:40:15.869Z,4.18
2023-08-22T00:42:43.731Z,3.75
2023-08-22T00:45:13.452Z,4.28
2023-08-22T00:47:41.504Z,3.92
2023-08-22T00:50:10.476Z,4.47
2023-08-22T00:52:39.092Z,4.18
2023-08-22T00:55:07.756Z,4.72
2023-08-22T00:57:35.986Z,4.15
2023-08-22T01:00:06.686Z,4.93
2023-08-22T01:02:36.318Z,4.80
2023-08-22T01:05:05.103Z,4.30
2023-08-22T01:07:39.536Z,5.28
2023-08-22T01:10:14.543Z,4.95
2023-08-22T01:12:47.589Z,4.32
2023-08-22T01:15:22.308Z,4.88
2023-08-22T01:17:53.620Z,5.00
2023-08-22T01:20:22.366Z,4.75
2023-08-22T01:22:51.801Z,5.55
2023-08-22T01:25:20.018Z,5.18
2023-08-22T01:27:55.922Z,5.47
2023-08-22T01:30:33.663Z,5.40
2023-08-22T01:33:08.718Z,5.93
2023-08-22T01:35:39.995Z,4.97
2023-08-22T01:38:10.825Z,4.50
2023-08-22T01:40:39.716Z,5.03
2023-08-22T01:43:07.853Z,5.32
2023-08-22T01:45:35.799Z,5.10
2023-08-22T01:48:03.915Z,5.22
2023-08-22T01:50:31.829Z,5.10
2023-08-22T01:53:00.081Z,6.07
2023-08-22T01:55:29.494Z,5.20
2023-08-22T01:57:57.558Z,5.93
2023-08-22T02:00:25.565Z,7.07
2023-08-22T02:02:53.579Z,5.53
2023-08-22T02:05:21.771Z,5.75
2023-08-22T02:07:49.743Z,5.32
2023-08-22T02:10:17.690Z,5.53
2023-08-22T02:12:47.008Z,6.28
2023-08-22T02:15:15.047Z,5.65
2023-08-22T02:17:43.186Z,5.55
2023-08-22T02:20:13.221Z,6.13
2023-08-22T02:22:41.978Z,6.38
2023-08-22T02:25:11.080Z,5.97
2023-08-22T02:27:39.746Z,5.80
2023-08-22T02:30:11.309Z,5.50
2023-08-22T02:32:39.330Z,5.78
2023-08-22T02:35:08.046Z,6.03
2023-08-22T02:37:35.938Z,6.18
2023-08-22T02:40:07.326Z,5.85
2023-08-22T02:42:35.353Z,5.80
2023-08-22T02:45:03.622Z,6.15
2023-08-22T02:47:33.851Z,5.93
2023-08-22T02:50:01.881Z,6.25
2023-08-22T02:52:30.441Z,5.80
2023-08-22T02:54:58.411Z,5.63
2023-08-22T02:57:26.555Z,6.35
2023-08-22T02:59:54.765Z,6.72
2023-08-22T03:02:22.830Z,6.30
2023-08-22T03:04:52.561Z,6.35
2023-08-22T03:07:20.925Z,6.23
2023-08-22T03:09:48.953Z,6.88
2023-08-22T03:12:16.913Z,6.18
2023-08-22T03:14:44.915Z,6.82
2023-08-22T03:17:13.301Z,6.75
2023-08-22T03:19:41.417Z,6.75
2023-08-22T03:22:10.827Z,6.65
2023-08-22T03:24:38.787Z,6.85
2023-08-22T03:27:06.877Z,7.43
2023-08-22T03:29:34.912Z,6.85
2023-08-22T03:32:02.770Z,6.78
2023-08-22T03:34:30.691Z,6.95
2023-08-22T03:36:58.609Z,6.30
2023-08-22T03:39:28.081Z,6.72
2023-08-22T03:41:56.054Z,6.80
2023-08-22T03:44:24.115Z,5.97
2023-08-22T03:46:52.069Z,8.10
2023-08-22T03:49:20.058Z,6.65
2023-08-22T03:51:48.087Z,8.10
2023-08-22T03:54:16.236Z,6.63
2023-08-22T03:56:45.679Z,7.43
2023-08-22T03:59:13.867Z,8.02
2023-08-22T04:01:44.556Z,6.88
2023-08-22T04:04:15.398Z,6.72
2023-08-22T04:06:43.947Z,7.53
2023-08-22T04:09:12.105Z,6.72
2023-08-22T04:11:41.159Z,7.35
2023-08-22T04:14:10.690Z,7.13
2023-08-22T04:16:38.723Z,6.82
2023-08-22T04:19:06.663Z,6.97
2023-08-22T04:21:34.577Z,6.68
2023-08-22T04:24:02.531Z,6.93
2023-08-22T04:26:30.443Z,6.18
2023-08-22T04:28:57.930Z,6.88
2023-08-22T04:31:27.271Z,7.18
2023-08-22T04:33:55.253Z,6.93
2023-08-22T04:36:23.108Z,5.78
2023-08-22T04:38:51.032Z,7.25
2023-08-22T04:41:19.027Z,6.78
2023-08-22T04:43:47.019Z,7.00
2023-08-22T04:46:16.877Z,7.53
2023-08-22T04:48:46.475Z,6.57
2023-08-22T04:51:14.417Z,7.28
2023-08-22T04:53:42.668Z,6.32
2023-08-22T04:56:10.676Z,6.40
2023-08-22T04:58:38.788Z,6.95
2023-08-22T05:01:07.306Z,6.10
2023-08-22T05:03:35.275Z,6.20
2023-08-22T05:06:04.897Z,6.72
2023-08-22T05:08:32.868Z,6.23
2023-08-22T05:11:00.790Z,6.03
2023-08-22T05:13:28.698Z,5.80
2023-08-22T05:15:56.587Z,6.38
2023-08-22T05:18:24.623Z,6.40
2023-08-22T05:20:53.607Z,5.97
2023-08-22T05:23:23.319Z,6.68
2023-08-22T05:25:51.355Z,5.18
2023-08-22T05:28:19.271Z,6.13
2023-08-22T05:30:47.209Z,5.65
2023-08-22T05:33:15.169Z,5.05
2023-08-22T05:35:43.163Z,7.53
2023-08-22T05:38:11.121Z,6.15
2023-08-22T05:40:40.458Z,6.15
2023-08-22T05:43:08.466Z,5.07
2023-08-22T05:45:36.321Z,5.47
2023-08-22T05:48:04.602Z,6.05
2023-08-22T05:50:32.517Z,5.72
2023-08-22T05:53:00.646Z,5.30
2023-08-22T05:55:28.739Z,5.00
2023-08-22T05:57:57.990Z,5.80
2023-08-22T06:00:25.973Z,5.53
2023-08-22T06:02:53.953Z,5.18
2023-08-22T06:05:21.971Z,4.35
2023-08-22T06:07:49.946Z,5.07
2023-08-22T06:10:18.124Z,4.57
2023-08-22T06:12:46.066Z,5.57
2023-08-22T06:15:15.313Z,5.03
2023-08-22T06:17:43.474Z,4.32
2023-08-22T06:20:12.060Z,4.95
2023-08-22T06:22:39.947Z,4.18
2023-08-22T06:25:08.513Z,3.85
2023-08-22T06:27:36.854Z,4.20
2023-08-22T06:30:06.527Z,3.95
2023-08-22T06:32:36.027Z,3.20
2023-08-22T06:35:05.266Z,3.97
2023-08-22T06:37:33.344Z,4.18
2023-08-22T06:40:01.273Z,3.50
2023-08-22T06:42:29.214Z,4.18
2023-08-22T06:44:58.212Z,3.67
2023-08-22T06:47:26.451Z,3.97
2023-08-22T06:49:55.698Z,4.10
2023-08-22T06:52:23.681Z,3.95
2023-08-22T06:54:51.830Z,3.40
2023-08-22T06:57:19.822Z,3.65
2023-08-22T06:59:47.766Z,3.78
2023-08-22T07:02:16.148Z,3.88
2023-08-22T07:04:44.248Z,4.00
2023-08-22T07:07:13.726Z,3.63
2023-08-22T07:09:41.709Z,3.70
2023-08-22T07:12:09.805Z,3.55
2023-08-22T07:14:43.222Z,4.40
2023-08-22T07:17:13.427Z,3.65
2023-08-22T07:19:42.496Z,4.22
2023-08-22T07:22:10.776Z,3.55
2023-08-22T07:24:40.130Z,3.83
2023-08-22T07:27:08.068Z,4.45
2023-08-22T07:29:35.968Z,4.10
2023-08-22T07:32:04.271Z,3.63
2023-08-22T07:34:33.825Z,3.90
2023-08-22T07:37:01.793Z,3.83
2023-08-22T07:39:29.756Z,4.32
2023-08-22T07:41:59.124Z,4.07
2023-08-22T07:44:27.031Z,3.67
2023-08-22T07:46:55.109Z,3.67
2023-08-22T07:49:23.105Z,4.00
2023-08-22T07:51:51.014Z,3.78
2023-08-22T07:54:19.157Z,3.75
2023-08-22T07:56:47.222Z,3.97
2023-08-22T07:59:16.537Z,4.00
2023-08-22T08:01:44.604Z,4.00
2023-08-22T08:04:12.652Z,4.13
2023-08-22T08:06:40.589Z,3.75
2023-08-22T08:09:13.928Z,3.60
2023-08-22T08:11:46.870Z,3.67
2023-08-22T08:14:16.479Z,4.13
2023-08-22T08:16:44.395Z,4.00
2023-08-22T08:19:14.523Z,3.30
2023-08-22T08:21:43.083Z,3.42
2023-08-22T08:24:12.992Z,4.00
2023-08-22T08:26:40.922Z,3.80
2023-08-22T08:29:08.876Z,3.85
2023-08-22T08:31:38.243Z,3.40
2023-08-22T08:34:06.262Z,4.78
2023-08-22T08:36:34.264Z,4.60
2023-08-22T08:39:02.246Z,3.78
2023-08-22T08:41:35.081Z,4.45
2023-08-22T08:44:04.458Z,4.00
2023-08-22T08:46:33.275Z,4.10
2023-08-22T08:49:03.157Z,3.50
2023-08-22T08:51:31.562Z,4.05
2023-08-22T08:54:00.062Z,3.88
2023-08-22T08:56:28.299Z,3.92
2023-08-22T08:58:56.260Z,3.65
2023-08-22T09:01:26.821Z,3.70
2023-08-22T09:03:54.987Z,3.67
2023-08-22T09:06:24.373Z,3.78
2023-08-22T09:09:05.691Z,3.78
2023-08-22T09:11:33.974Z,3.70
2023-08-22T09:14:01.842Z,4.15
2023-08-22T09:16:30.734Z,3.92
2023-08-22T09:19:02.273Z,4.03
2023-08-22T09:21:32.226Z,3.47
2023-08-22T09:24:08.603Z,3.60
2023-08-22T09:26:37.274Z,3.65
2023-08-22T09:29:08.442Z,3.50
2023-08-22T09:31:37.365Z,3.85
2023-08-22T09:34:11.036Z,3.67
2023-08-22T09:36:47.448Z,3.63
2023-08-22T09:39:17.760Z,3.75
2023-08-22T09:41:45.746Z,3.75
2023-08-22T09:44:14.143Z,3.72
2023-08-22T09:46:43.260Z,3.33
2023-08-22T09:49:15.858Z,3.72
2023-08-22T09:51:46.246Z,4.45
2023-08-22T09:54:15.472Z,4.10
2023-08-22T09:56:44.164Z,3.58
2023-08-22T09:59:14.033Z,3.78
2023-08-22T10:01:43.315Z,3.78
2023-08-22T10:04:13.848Z,3.28
2023-08-22T10:09:18.223Z,4.10
2023-08-22T10:11:50.792Z,3.60
2023-08-22T10:14:25.619Z,3.70
2023-08-22T10:16:56.063Z,3.25
2023-08-22T10:21:54.435Z,3.53
2023-08-22T10:24:30.864Z,3.40
2023-08-22T10:27:05.051Z,3.53
2023-08-22T10:29:38.012Z,3.40
2023-08-22T10:32:24.987Z,3.45
2023-08-22T10:35:26.717Z,3.85
2023-08-22T10:37:56.102Z,3.80
2023-08-22T10:40:30.577Z,3.47
2023-08-22T10:43:09.333Z,3.92
2023-08-22T10:45:50.364Z,3.55
2023-08-22T10:48:20.515Z,4.00
2023-08-22T10:50:51.301Z,3.80
2023-08-22T10:53:25.539Z,4.10
2023-08-22T10:55:56.612Z,3.85
2023-08-22T10:58:42.052Z,3.60
2023-08-22T11:01:12.587Z,3.33
2023-08-22T11:03:40.935Z,3.80
2023-08-22T11:06:13.720Z,3.90
2023-08-22T11:08:44.501Z,3.40
2023-08-22T11:11:16.040Z,3.17
2023-08-22T11:13:44.751Z,3.50
2023-08-22T11:16:14.832Z,3.90
2023-08-22T11:18:43.408Z,3.55
2023-08-22T11:21:11.872Z,3.03
2023-08-22T11:23:40.092Z,3.85
2023-08-22T11:26:11.275Z,3.65
2023-08-22T11:28:40.843Z,4.20
2023-08-22T11:31:16.635Z,4.20
2023-08-22T11:33:53.523Z,3.67
2023-08-22T11:36:26.614Z,3.72
2023-08-22T11:38:56.106Z,3.53
2023-08-22T11:41:24.387Z,2.80
2023-08-22T11:44:02.067Z,3.00
2023-08-22T11:46:32.172Z,3.00
2023-08-22T11:49:07.138Z,3.35
2023-08-22T11:51:35.232Z,3.10
2023-08-22T11:54:03.786Z,2.65
2023-08-22T11:56:31.873Z,3.03
2023-08-22T11:59:01.559Z,2.85
2023-08-22T12:01:29.570Z,2.70
2023-08-22T12:03:58.884Z,3.30
2023-08-22T12:06:26.963Z,2.80
2023-08-22T12:09:02.537Z,3.17
2023-08-22T12:11:31.159Z,2.75
2023-08-22T12:13:59.122Z,3.03
2023-08-22T12:16:29.713Z,3.65
2023-08-22T12:21:26.598Z,2.78
2023-08-22T12:23:54.529Z,3.10
2023-08-22T12:26:21.576Z,2.70
2023-08-22T12:28:49.528Z,3.47
2023-08-22T12:31:17.394Z,2.40
2023-08-22T12:33:46.734Z,2.80
2023-08-22T12:36:14.878Z,2.70
2023-08-22T12:38:42.838Z,3.35
2023-08-22T12:41:11.510Z,3.20
2023-08-22T12:43:39.480Z,3.03
2023-08-22T12:46:07.537Z,2.58
2023-08-22T12:48:36.748Z,2.63
2023-08-22T12:51:06.203Z,2.70
2023-08-22T12:53:34.137Z,2.70
2023-08-22T12:56:02.070Z,2.88
2023-08-22T12:58:31.537Z,2.83
2023-08-22T13:00:59.476Z,3.15
2023-08-22T13:03:27.534Z,3.35
2023-08-22T13:05:55.572Z,3.50
2023-08-22T13:08:24.885Z,2.97
2023-08-22T13:10:53.961Z,4.18
2023-08-22T13:13:21.962Z,3.75
2023-08-22T13:15:50.395Z,3.90
2023-08-22T13:18:18.515Z,3.78
2023-08-22T13:20:46.569Z,3.40
2023-08-22T13:23:15.023Z,3.85
2023-08-22T13:25:44.434Z,4.45
2023-08-22T13:28:13.734Z,3.88
2023-08-22T13:30:42.182Z,4.03
2023-08-22T13:33:10.143Z,4.00
2023-08-22T13:35:38.146Z,3.72
2023-08-22T13:38:06.328Z,3.25
2023-08-22T13:40:34.419Z,3.17
2023-08-22T13:43:04.889Z,3.42
2023-08-22T13:48:03.627Z,2.63
2023-08-22T13:50:32.986Z,2.58
2023-08-22T13:53:01.027Z,2.83
2023-08-22T13:55:29.192Z,2.88
2023-08-22T13:57:57.779Z,2.30
2023-08-22T14:00:28.271Z,2.83
2023-08-22T14:05:24.594Z,2.85
2023-08-22T14:07:52.887Z,3.35
2023-08-22T14:10:25.097Z,2.58
2023-08-22T14:12:53.533Z,3.17
2023-08-22T14:15:21.574Z,2.70
2023-08-22T14:17:50.929Z,2.55
2023-08-22T14:20:19.285Z,2.92
2023-08-22T14:22:47.300Z,2.78
2023-08-22T14:25:15.416Z,2.97
2023-08-22T14:27:43.429Z,2.88
2023-08-22T14:30:13.527Z,3.05
2023-08-22T14:32:41.542Z,2.85
2023-08-22T14:35:11.758Z,2.80
2023-08-22T14:37:39.782Z,2.75
2023-08-22T14:40:09.907Z,3.08
2023-08-22T14:42:37.976Z,2.65
2023-08-22T14:45:06.609Z,2.40
2023-08-22T14:47:34.639Z,3.35
2023-08-22T14:50:02.835Z,3.28
2023-08-22T14:52:32.197Z,2.85
2023-08-22T14:55:03.003Z,2.30
2023-08-22T14:57:31.453Z,2.00
2023-08-22T15:00:00.408Z,3.00
2023-08-22T15:02:28.383Z,2.08
2023-08-22T15:04:56.374Z,1.90
2023-08-22T15:07:24.377Z,2.10
2023-08-22T15:09:53.683Z,1.70
2023-08-22T15:12:21.677Z,1.75
2023-08-22T15:14:49.766Z,1.70
2023-08-22T15:17:17.821Z,1.70
2023-08-22T15:19:45.943Z,1.75
2023-08-22T15:22:13.940Z,1.85
2023-08-22T15:24:41.841Z,1.73
2023-08-22T15:27:12.450Z,1.98
2023-08-22T15:29:40.497Z,1.98
2023-08-22T15:32:08.932Z,2.00
2023-08-22T15:34:36.823Z,2.05
2023-08-22T15:37:04.783Z,2.05
2023-08-22T15:39:32.771Z,1.95
2023-08-22T15:42:03.498Z,1.92
2023-08-22T15:44:32.803Z,1.80
2023-08-22T15:47:00.823Z,2.70
2023-08-22T15:49:28.794Z,2.22
2023-08-22T15:51:56.687Z,2.03
2023-08-22T15:54:24.695Z,2.25
2023-08-22T15:56:52.807Z,2.78
2023-08-22T15:59:20.896Z,2.17
2023-08-22T16:01:50.271Z,2.13
2023-08-22T16:04:18.386Z,2.30
2023-08-22T16:06:46.348Z,3.17
2023-08-22T16:09:14.263Z,2.50
2023-08-22T16:11:42.288Z,2.97
2023-08-22T16:14:10.195Z,2.42
2023-08-22T16:16:38.117Z,1.88
2023-08-22T16:19:07.816Z,1.30
2023-08-22T16:21:35.784Z,1.37
2023-08-22T16:24:04.226Z,1.60
2023-08-22T16:26:32.733Z,1.95
2023-08-22T16:29:00.847Z,1.50
2023-08-22T16:31:30.182Z,1.73
2023-08-22T16:33:58.493Z,1.52
2023-08-22T16:36:27.844Z,1.45
2023-08-22T16:38:55.795Z,1.38
2023-08-22T16:41:23.764Z,1.70
2023-08-22T16:43:51.725Z,1.33
2023-08-22T16:46:19.862Z,1.33
2023-08-22T16:48:47.828Z,1.40
2023-08-22T16:51:17.483Z,1.30
2023-08-22T16:53:46.924Z,1.40
2023-08-22T16:56:14.885Z,1.20
2023-08-22T16:58:44.044Z,1.25
2023-08-22T17:01:13.786Z,1.48
2023-08-22T17:03:44.189Z,1.50
2023-08-22T17:06:15.264Z,1.45
2023-08-22T17:08:43.365Z,1.83
2023-08-22T17:11:14.363Z,1.85
2023-08-22T17:13:44.660Z,1.80
2023-08-22T17:16:13.382Z,2.13
2023-08-22T17:18:41.892Z,1.48
2023-08-22T17:21:12.331Z,2.05
2023-08-22T17:23:40.586Z,1.50
2023-08-22T17:26:10.114Z,2.38
2023-08-22T17:28:41.754Z,2.10
2023-08-22T17:31:10.804Z,2.38
2023-08-22T17:33:40.732Z,2.17
2023-08-22T17:36:10.972Z,1.95
2023-08-22T17:38:40.087Z,1.90
2023-08-22T17:41:09.190Z,2.20
2023-08-22T17:43:40.590Z,2.10
2023-08-22T17:46:08.651Z,2.00
2023-08-22T17:48:36.633Z,2.05
2023-08-22T17:51:04.745Z,2.15
2023-08-22T17:53:32.643Z,1.67
2023-08-22T17:56:00.550Z,1.90
2023-08-22T17:58:28.668Z,1.55
2023-08-22T18:00:58.007Z,1.80
2023-08-22T18:03:27.106Z,2.47
2023-08-22T18:05:56.303Z,1.63
2023-08-22T18:08:24.583Z,1.73
2023-08-22T18:10:53.611Z,1.73
2023-08-22T18:13:21.898Z,1.85
2023-08-22T18:16:02.875Z,1.90
2023-08-22T18:18:39.830Z,2.13
2023-08-22T18:21:09.934Z,2.00
2023-08-22T18:23:38.762Z,1.57
2023-08-22T18:26:09.042Z,1.50
2023-08-22T18:28:37.386Z,2.05
2023-08-22T18:31:11.822Z,1.67
2023-08-22T18:33:41.826Z,1.60
2023-08-22T18:36:18.534Z,1.50
2023-08-22T18:38:46.702Z,1.75
2023-08-22T18:41:15.440Z,1.48
2023-08-22T18:43:44.821Z,1.48
2023-08-22T18:46:13.137Z,1.77
2023-08-22T18:48:42.723Z,1.65
2023-08-22T18:51:11.189Z,1.90
2023-08-22T18:53:39.162Z,1.52
2023-08-22T18:56:09.933Z,1.98
2023-08-22T18:58:40.867Z,1.83
2023-08-22T19:01:08.997Z,1.92
2023-08-22T19:03:37.186Z,1.70
2023-08-22T19:06:06.772Z,1.75
2023-08-22T19:08:34.787Z,1.97
2023-08-22T19:11:05.161Z,1.75
2023-08-22T19:13:33.533Z,1.58
2023-08-22T19:16:01.627Z,1.90
2023-08-22T19:18:29.773Z,1.30
2023-08-22T19:20:57.830Z,2.22
2023-08-22T19:23:27.290Z,1.80
2023-08-22T19:25:55.258Z,1.45
2023-08-22T19:28:23.377Z,1.67
2023-08-22T19:30:56.519Z,1.38
2023-08-22T19:33:25.808Z,1.50
2023-08-22T19:35:53.965Z,1.52
2023-08-22T19:38:22.029Z,2.00
2023-08-22T19:40:51.552Z,1.77
2023-08-22T19:43:19.470Z,1.60
2023-08-22T19:45:47.855Z,2.35
2023-08-22T19:48:15.925Z,1.95
2023-08-22T19:50:43.857Z,1.45
2023-08-22T19:53:12.467Z,1.60
2023-08-22T19:55:40.749Z,1.30
2023-08-22T19:58:10.159Z,1.70
2023-08-22T20:00:39.568Z,1.75
2023-08-22T20:03:07.585Z,2.10
2023-08-22T20:05:35.540Z,1.60
2023-08-22T20:08:03.495Z,1.48
2023-08-22T20:10:32.033Z,1.73
2023-08-22T20:13:00.034Z,1.83
2023-08-22T20:15:29.506Z,1.83
2023-08-22T20:17:57.673Z,1.98
2023-08-22T20:20:25.758Z,2.08
2023-08-22T20:22:53.771Z,1.98
2023-08-22T20:25:21.855Z,1.85
2023-08-22T20:27:49.994Z,1.50
2023-08-22T20:30:18.016Z,1.90
2023-08-22T20:32:47.346Z,2.33
2023-08-22T20:35:16.892Z,1.98
2023-08-22T20:37:47.087Z,2.00
2023-08-22T20:40:15.239Z,1.92
2023-08-22T20:42:43.241Z,2.00
2023-08-22T20:45:11.938Z,2.00
2023-08-22T20:47:39.933Z,2.00
2023-08-22T20:50:10.947Z,1.63
2023-08-22T20:52:38.970Z,1.58
2023-08-22T20:55:07.485Z,1.63
2023-08-22T20:57:35.485Z,1.73
2023-08-22T21:00:07.125Z,1.92
2023-08-22T21:05:02.993Z,2.00
2023-08-22T21:07:32.373Z,1.70
2023-08-22T21:10:00.219Z,1.73
2023-08-22T21:12:28.912Z,2.50
2023-08-22T21:14:56.888Z,2.40
2023-08-22T21:17:24.929Z,2.13
2023-08-22T21:19:52.850Z,2.65
2023-08-22T21:22:20.898Z,1.98
2023-08-22T21:24:50.214Z,2.50
2023-08-22T21:27:19.120Z,2.00
2023-08-22T21:29:47.157Z,1.60
2023-08-22T21:32:15.794Z,2.08
2023-08-22T21:34:45.281Z,2.10
2023-08-22T21:37:13.301Z,2.00
2023-08-22T21:39:41.265Z,1.95
2023-08-22T21:42:12.592Z,1.58
2023-08-22T21:44:41.005Z,2.25
2023-08-22T21:47:08.921Z,1.65
2023-08-22T21:49:36.870Z,1.88
2023-08-22T21:52:05.136Z,3.30
2023-08-22T21:54:33.323Z,2.72
2023-08-22T21:57:01.352Z,2.05
2023-08-22T21:59:30.672Z,1.30
2023-08-22T22:01:58.723Z,1.67
2023-08-22T22:04:26.640Z,2.15
2023-08-22T22:06:54.721Z,1.85
2023-08-22T22:09:22.759Z,2.40
2023-08-22T22:11:50.650Z,2.38
2023-08-22T22:14:18.608Z,2.40
2023-08-22T22:16:50.170Z,2.15
2023-08-22T22:19:19.913Z,2.40
2023-08-22T22:21:50.156Z,2.13
2023-08-22T22:24:18.176Z,2.55
2023-08-22T22:26:46.164Z,2.50
2023-08-22T22:29:14.151Z,2.40
2023-08-22T22:31:42.165Z,2.50
2023-08-22T22:34:11.650Z,2.40
2023-08-22T22:36:39.723Z,2.63
2023-08-22T22:39:07.789Z,2.75
2023-08-22T22:41:35.792Z,2.60
2023-08-22T22:44:03.776Z,2.40
2023-08-22T22:46:31.887Z,2.75
2023-08-22T22:48:59.912Z,2.50
2023-08-22T22:51:29.215Z,2.30
2023-08-22T22:53:57.134Z,2.40
2023-08-22T22:56:25.056Z,1.80
2023-08-22T22:58:52.984Z,2.58
2023-08-22T23:01:20.980Z,2.30
2023-08-22T23:03:49.069Z,3.50
2023-08-22T23:06:17.294Z,4.35
2023-08-22T23:08:46.793Z,2.75
2023-08-22T23:11:16.460Z,2.03
2023-08-22T23:13:54.885Z,2.10
2023-08-22T23:16:22.921Z,2.22
2023-08-22T23:18:50.947Z,2.25
2023-08-22T23:21:18.876Z,2.22
2023-08-22T23:23:48.228Z,2.00
2023-08-22T23:26:16.097Z,2.35
2023-08-22T23:28:44.086Z,1.98
2023-08-22T23:31:12.043Z,1.95
2023-08-22T23:33:39.978Z,1.65
2023-08-22T23:36:07.992Z,2.20
2023-08-22T23:38:36.077Z,1.98
2023-08-22T23:41:05.410Z,1.42
2023-08-22T23:43:33.372Z,2.17
2023-08-22T23:46:01.277Z,2.10
2023-08-22T23:48:29.308Z,1.77
2023-08-22T23:51:10.956Z,1.83
2023-08-22T23:53:44.630Z,1.77
2023-08-22T23:56:14.039Z,1.90
2023-08-22T23:58:41.910Z,1.77
